Angler Guide Weather for Koosharem -
Koosharem, Utah Current Weather Conditions
Enter your "Place, State", US Zip Code or ICAO:  
NowCast ZoneCast Warnings/Advisories Hourly Track Special Radar
Koosharem, Utah (84744)  Lat: 38.51N, Lon: 111.88W
Wx Zone: UTZ017 ICAO Used: KBCE
Current Conditions at nearby:
Bryce Canyon, UT
Updated: UNKNOWN
Sun & Moon Information:
Fair
Fair
Temp: 69°F
Humidity: 31%
Wind Speed: VRB 3.5 MPH (3 KT)
Barometer: 30.37 in.
Dewpoint: 37°F
Heat Index: 69°F
Wind Chill: 69°F
Civil Twilight: 6:48 AM MDT
Moonrise: 6:44 AM MDT Moon Phase:
New Moon
New Moon
Moonset: 7:04 PM MDT
Sunrise: 7:14 AM MDT
Sunset: 7:23 PM MDT
Civil Twilight: 7:50 PM MDT
Forecast for Koosharem, UT:
(Forecast based on TAF for )
0600 PM MDT FRI NOV 29 2013
  
EVENINGOVERNIGHTMORNINGAFTERNOON
TAF based forecast:
Dated: 0600 PM MDT FRI NOV 29 2013
Evening....
Overnight....
Morning....
Afternoon....
Original Encoded TAF:
Dated: 0600 PM MDT FRI NOV 29 2013
2014/09/23 18:24
TAF KBCE 231723Z 2318/2418 21008KT P6SM SKC 
     FM240200 27006KT P6SM SKC



Powered by Angler Guide.com
Copyright 2007, all rights reserved.